createdAt,value
2023-02-16T00:03:02.168Z,547.10
2023-02-16T00:08:04.668Z,492.47
2023-02-16T00:13:45.219Z,405.80
2023-02-16T00:18:48.126Z,426.97
2023-02-16T00:23:50.659Z,419.47
2023-02-16T00:28:54.988Z,431.93
2023-02-16T00:33:58.265Z,452.60
2023-02-16T00:39:00.671Z,504.80
2023-02-16T00:44:03.160Z,466.43
2023-02-16T00:49:05.750Z,449.40
2023-02-16T00:54:08.105Z,404.17
2023-02-16T00:59:18.265Z,404.30
2023-02-16T01:04:23.554Z,359.20
2023-02-16T01:09:44.915Z,396.73
2023-02-16T01:14:52.177Z,429.00
2023-02-16T01:19:54.591Z,383.20
2023-02-16T01:24:56.900Z,339.77
2023-02-16T01:30:00.760Z,312.53
2023-02-16T01:35:03.173Z,371.00
2023-02-16T01:40:06.025Z,273.17
2023-02-16T01:45:17.608Z,229.53
2023-02-16T01:50:25.847Z,253.50
2023-02-16T01:55:41.585Z,237.90
2023-02-16T02:00:49.719Z,207.27
2023-02-16T02:05:52.031Z,272.70
2023-02-16T02:11:41.061Z,174.37
2023-02-16T02:17:01.132Z,180.73
2023-02-16T02:22:46.957Z,241.93
2023-02-16T02:28:21.611Z,327.73
2023-02-16T02:33:43.912Z,250.40
2023-02-16T02:39:05.898Z,225.77
2023-02-16T02:44:10.147Z,142.03
2023-02-16T02:49:12.508Z,165.90
2023-02-16T02:54:43.029Z,118.20
2023-02-16T03:00:26.541Z,139.33
2023-02-16T03:05:33.182Z,95.67
2023-02-16T03:10:56.719Z,90.67
2023-02-16T03:16:02.697Z,84.23
2023-02-16T03:21:24.074Z,92.80
2023-02-16T03:26:46.181Z,89.60
2023-02-16T03:31:51.040Z,93.30
2023-02-16T03:37:00.794Z,81.97
2023-02-16T03:42:03.159Z,85.83
2023-02-16T03:47:06.697Z,89.23
2023-02-16T03:52:09.282Z,83.53
2023-02-16T03:57:11.616Z,127.03
2023-02-16T04:02:13.946Z,104.00
2023-02-16T04:07:16.321Z,81.47
2023-02-16T04:12:36.657Z,88.93
2023-02-16T04:17:39.260Z,100.13
2023-02-16T04:22:41.781Z,94.90
2023-02-16T04:27:45.040Z,86.67
2023-02-16T04:32:47.372Z,81.77
2023-02-16T04:37:49.818Z,83.77
2023-02-16T04:42:52.169Z,97.20
2023-02-16T04:47:54.444Z,97.23
2023-02-16T04:52:56.767Z,101.83
2023-02-16T04:57:59.056Z,96.63
2023-02-16T05:03:01.406Z,85.43
2023-02-16T05:08:03.853Z,96.80
2023-02-16T05:13:24.862Z,125.67
2023-02-16T05:18:28.164Z,100.97
2023-02-16T05:23:30.446Z,94.87
2023-02-16T05:28:32.774Z,99.27
2023-02-16T05:33:35.093Z,102.10
2023-02-16T05:38:37.646Z,124.80
2023-02-16T05:43:40.223Z,138.60
2023-02-16T05:48:42.575Z,135.07
2023-02-16T05:53:45.112Z,114.13
2023-02-16T05:58:47.523Z,129.37
2023-02-16T06:03:49.876Z,130.13
2023-02-16T06:08:52.218Z,103.23
2023-02-16T06:13:58.108Z,84.17
2023-02-16T06:19:00.641Z,94.33
2023-02-16T06:24:02.940Z,101.20
2023-02-16T06:29:06.017Z,114.77
2023-02-16T06:34:08.334Z,104.33
2023-02-16T06:39:10.835Z,125.97
2023-02-16T06:44:15.603Z,125.37
2023-02-16T06:49:19.924Z,99.27
2023-02-16T06:54:22.672Z,116.63
2023-02-16T06:59:25.007Z,92.30
2023-02-16T07:04:27.409Z,99.43
2023-02-16T07:09:30.013Z,98.37
2023-02-16T07:14:32.674Z,97.17
2023-02-16T07:19:34.877Z,82.10
2023-02-16T07:24:37.089Z,77.40
2023-02-16T07:29:39.899Z,79.30
2023-02-16T07:34:42.132Z,71.07
2023-02-16T07:39:44.371Z,95.77
2023-02-16T07:44:47.388Z,73.97
2023-02-16T07:49:49.660Z,70.67
2023-02-16T07:54:51.902Z,69.47
2023-02-16T07:59:54.911Z,73.23
2023-02-16T08:04:58.077Z,65.20
2023-02-16T08:10:01.219Z,67.40
2023-02-16T08:15:04.465Z,67.20
2023-02-16T08:20:09.710Z,57.97
2023-02-16T08:25:12.029Z,58.07
2023-02-16T08:30:16.703Z,53.93
2023-02-16T08:35:19.102Z,55.90
2023-02-16T08:40:24.741Z,54.17
2023-02-16T08:45:27.382Z,55.53
2023-02-16T08:50:29.631Z,53.40
2023-02-16T08:55:31.895Z,61.13
2023-02-16T09:00:34.151Z,48.63
2023-02-16T09:05:36.444Z,60.97
2023-02-16T09:10:38.776Z,54.57
2023-02-16T09:15:43.212Z,48.60
2023-02-16T09:20:47.014Z,58.30
2023-02-16T09:25:49.444Z,48.73
2023-02-16T09:30:51.742Z,48.10
2023-02-16T09:35:54.708Z,50.37
2023-02-16T09:40:57.325Z,42.93
2023-02-16T09:46:02.200Z,44.40
2023-02-16T09:51:06.627Z,44.77
2023-02-16T09:56:22.738Z,44.37
2023-02-16T10:01:41.228Z,47.13
2023-02-16T10:07:00.084Z,41.80
2023-02-16T10:12:07.861Z,44.00
2023-02-16T10:17:23.987Z,53.10
2023-02-16T10:22:33.430Z,46.93
2023-02-16T10:27:43.117Z,43.10
2023-02-16T10:32:55.542Z,40.77
2023-02-16T10:38:29.129Z,42.10
2023-02-16T10:43:41.960Z,46.00
2023-02-16T10:48:46.673Z,52.58
2023-02-16T10:53:54.767Z,43.77
2023-02-16T10:58:59.223Z,41.47
2023-02-16T11:04:01.795Z,42.10
2023-02-16T11:09:04.566Z,39.73
2023-02-16T11:14:25.374Z,41.77
2023-02-16T11:19:28.899Z,41.40
2023-02-16T11:24:33.298Z,36.43
2023-02-16T11:29:35.791Z,40.13
2023-02-16T11:34:44.671Z,43.43
2023-02-16T11:40:00.492Z,40.27
2023-02-16T11:45:04.948Z,40.93
2023-02-16T11:50:26.242Z,47.27
2023-02-16T11:55:33.793Z,44.13
2023-02-16T12:00:36.630Z,40.03
2023-02-16T12:05:59.182Z,41.13
2023-02-16T12:11:34.641Z,40.37
2023-02-16T12:17:00.309Z,43.40
2023-02-16T12:22:14.345Z,42.33
2023-02-16T12:27:27.680Z,40.57
2023-02-16T12:32:57.956Z,46.60
2023-02-16T12:38:31.762Z,44.57
2023-02-16T12:43:41.933Z,46.20
2023-02-16T12:48:55.275Z,50.23
2023-02-16T12:54:23.980Z,46.43
2023-02-16T13:00:14.497Z,45.13
2023-02-16T13:05:30.539Z,44.33
2023-02-16T13:10:58.751Z,44.30
2023-02-16T13:16:24.156Z,44.23
2023-02-16T13:22:02.227Z,45.50
2023-02-16T13:27:40.846Z,48.63
2023-02-16T13:33:00.240Z,42.30
2023-02-16T13:38:26.923Z,36.90
2023-02-16T13:43:38.317Z,42.90
2023-02-16T13:48:48.047Z,44.70
2023-02-16T13:53:59.483Z,50.00
2023-02-16T13:59:17.827Z,46.93
2023-02-16T14:04:23.050Z,45.00
2023-02-16T14:09:37.587Z,125.13
2023-02-16T14:14:42.952Z,51.13
2023-02-16T14:20:05.197Z,58.70
2023-02-16T14:25:29.022Z,44.97
2023-02-16T14:30:44.713Z,50.00
2023-02-16T14:36:02.454Z,46.03
2023-02-16T14:41:08.838Z,46.93
2023-02-16T14:46:44.164Z,48.80
2023-02-16T14:52:37.928Z,49.93
2023-02-16T14:57:48.947Z,46.13
2023-02-16T15:03:04.210Z,50.00
2023-02-16T15:08:25.341Z,51.93
2023-02-16T15:13:30.487Z,50.60
2023-02-16T15:18:34.172Z,49.73
2023-02-16T15:23:36.616Z,78.10
2023-02-16T15:28:40.922Z,54.13
2023-02-16T15:33:52.741Z,49.43
2023-02-16T15:38:57.445Z,49.10
2023-02-16T15:44:02.427Z,58.03
2023-02-16T15:49:14.936Z,55.20
2023-02-16T15:54:24.033Z,64.43
2023-02-16T15:59:37.393Z,157.57
2023-02-16T16:04:42.411Z,482.90
2023-02-16T16:09:46.094Z,405.30
2023-02-16T16:14:55.703Z,269.97
2023-02-16T16:20:19.452Z,140.27
2023-02-16T16:25:43.435Z,99.25
2023-02-16T16:30:46.698Z,81.63
2023-02-16T16:35:50.748Z,77.00
2023-02-16T16:41:02.390Z,132.67
2023-02-16T16:46:23.403Z,132.03
2023-02-16T16:51:27.727Z,100.03
2023-02-16T16:56:35.175Z,96.80
2023-02-16T17:01:37.516Z,93.63
2023-02-16T17:06:39.823Z,89.77
2023-02-16T17:11:42.209Z,102.17
2023-02-16T17:16:47.302Z,144.33
2023-02-16T17:21:49.852Z,161.97
2023-02-16T17:26:52.323Z,177.47
2023-02-16T17:31:54.680Z,192.27
2023-02-16T17:37:07.413Z,160.63
2023-02-16T17:42:12.991Z,157.20
2023-02-16T17:47:16.762Z,153.00
2023-02-16T17:52:19.068Z,114.60
2023-02-16T17:57:21.333Z,150.20
2023-02-16T18:02:23.626Z,353.17
2023-02-16T18:07:26.201Z,132.47
2023-02-16T18:12:28.655Z,191.70
2023-02-16T18:17:30.914Z,132.13
2023-02-16T18:22:33.175Z,127.70
2023-02-16T18:27:35.412Z,150.83
2023-02-16T18:32:37.720Z,178.40
2023-02-16T18:37:40.214Z,136.50
2023-02-16T18:42:42.817Z,515.83
2023-02-16T18:47:45.525Z,147.93
2023-02-16T18:52:47.846Z,113.00
2023-02-16T18:57:50.576Z,107.47
2023-02-16T19:02:56.970Z,215.77
2023-02-16T19:07:59.418Z,182.00
2023-02-16T19:13:05.350Z,132.13
2023-02-16T19:18:07.641Z,128.03
2023-02-16T19:23:09.922Z,117.30
2023-02-16T19:28:12.148Z,122.83
2023-02-16T19:33:14.398Z,101.73
2023-02-16T19:38:16.996Z,117.90
2023-02-16T19:43:21.239Z,105.53
2023-02-16T19:48:23.578Z,116.77
2023-02-16T19:53:25.928Z,133.90
2023-02-16T19:58:28.221Z,75.47
2023-02-16T20:03:30.692Z,86.73
2023-02-16T20:08:33.253Z,72.87
2023-02-16T20:13:36.932Z,79.30
2023-02-16T20:18:40.091Z,83.97
2023-02-16T20:23:42.964Z,75.37
2023-02-16T20:28:47.109Z,67.87
2023-02-16T20:33:49.879Z,100.47
2023-02-16T20:38:52.440Z,66.73
2023-02-16T20:43:54.664Z,61.30
2023-02-16T20:48:57.090Z,60.53
2023-02-16T20:54:01.143Z,54.53
2023-02-16T20:59:04.538Z,61.40
2023-02-16T21:04:08.204Z,53.90
2023-02-16T21:09:11.358Z,58.57
2023-02-16T21:14:15.332Z,66.20
2023-02-16T21:19:23.397Z,57.67
2023-02-16T21:24:25.850Z,58.00
2023-02-16T21:29:28.098Z,53.73
2023-02-16T21:34:30.832Z,147.57
2023-02-16T21:39:51.869Z,62.03
2023-02-16T21:45:12.404Z,54.23
2023-02-16T21:50:17.038Z,61.47
2023-02-16T21:55:38.096Z,50.90
2023-02-16T22:00:41.268Z,51.47
2023-02-16T22:05:43.747Z,56.60
2023-02-16T22:10:46.040Z,51.80
2023-02-16T22:15:49.075Z,54.43
2023-02-16T22:20:51.386Z,55.50
2023-02-16T22:25:53.624Z,52.70
2023-02-16T22:30:55.909Z,61.03
2023-02-16T22:35:58.140Z,72.37
2023-02-16T22:41:04.789Z,69.60
2023-02-16T22:46:09.104Z,78.07
2023-02-16T22:51:13.964Z,71.73
2023-02-16T22:56:17.974Z,66.63
2023-02-16T23:01:21.627Z,62.57
2023-02-16T23:06:27.766Z,59.70
2023-02-16T23:11:30.667Z,72.60
2023-02-16T23:16:33.114Z,60.30
2023-02-16T23:21:35.368Z,67.13
2023-02-16T23:26:37.648Z,60.30
2023-02-16T23:31:42.613Z,55.73
2023-02-16T23:36:45.412Z,55.20
2023-02-16T23:41:47.760Z,60.90
2023-02-16T23:46:49.997Z,66.90
2023-02-16T23:51:52.279Z,58.60
2023-02-16T23:56:54.533Z,51.07
